Aérodrome :
LOGIN :

S'inscrire | Disclaimer

   EN    FR    IT 

 










Légende :    VFR   VFR Marginal   IFR   IFR Intensif   IFR Très Intensif
Visi : 
Plafond : 
>= 8 km
>= 3000ft
5 à 8 km
1000 à 3000 ft
1500m à 5 km
500 à 1000 ft
800 à 1500m
200 à 500 ft
< 800m
< 200 ft
Symboles :   Orages  Brouillard  Fortes neiges  Fortes précipitations  Vent > 20 kt
SIGMETs :   Divers  Orages  Givrage  Turbulence  Onde Orograph.  Cendres Volcan.






- Altitude de l'aérodrome : 1058 ft
- Code IATA : SCN


EDDR - Saarbrücken

DERNIER METAR :
  • 240050Z 11004KT 7000 OVC006 M01/M02 Q1025

METARs EXPIRÉS :
  • 240020Z 12004KT 6000 OVC006 M01/M02 Q1025
  • 232350Z 12006KT 6000 OVC005 M01/M02 Q1025
  • 232320Z 11004KT 070V180 5000 BR OVC004 M01/M02 Q1026
  • 232250Z 11004KT 6000 OVC004 M01/M02 Q1026
  • 232220Z 14007KT 7000 OVC004 M01/M02 Q1026
  • 232150Z 11005KT 080V140 7000 OVC005 M01/M02 Q1026

TAF TAF EDDR
Valide du 24 à 00h jusqu'au 25 à 00h UTC


232300Z 2400/2424 VRB03KT 6000 OVC006
TEMPO 2400/2410 3000 BR BKN002
PROB40
TEMPO 2402/2408 0300 FZFG VV001
BECMG 2410/2413 SCT015
BECMG 2418/2421 4000 BR
TEMPO 2421/2424 0400 FZFG VV001



MET'MAP, la Météo Aéronautique d'un coup d'oeil ! - Copyright ORBIFLY Décembre 2007 - Disclaimer

ORBIFLY MET'MAP TEAM :

Programmation & Développement : Alexandra Zaïnal
Sur une idée originale de : Baudouin d'Aumeries
Assistance à la programmation : Marc-Olivier Méhu
Soutien technique & logistique : Manuel Goepfert

Contact : metmap@orbifly.com




SOURCES & CREDITS :

   NOAA